Time;durP1;ratioP1;P1;durP2;ratioP2;P2;SDS_P1;SDS_P2;PMS_P1;PMS_P2;Temp;Humidity;BMP_temperature;BMP_pressure;BME280_temperature;BME280_humidity;BME280_pressure;Samples;Min_cycle;Max_cycle;Signal;HPM_P1;HPM_P2
2022/06/12 00:01:51;;;;;;;20.88;10.35;;;;;;;;;;4895570;28;20024;-66
2022/06/12 00:04:17;;;;;;;22.52;10.93;;;;;;;;;;4893487;28;20075;-66
2022/06/12 00:06:43;;;;;;;19.55;10.00;;;;;;;;;;4894996;28;20032;-66
2022/06/12 00:09:10;;;;;;;18.77;9.70;;;;;;;;;;4894263;28;20027;-66
2022/06/12 00:11:36;;;;;;;20.33;9.43;;;;;;;;;;4893602;28;20033;-66
2022/06/12 00:14:04;;;;;;;21.90;9.43;;;;;;;;;;4894821;28;20064;-66
2022/06/12 00:16:31;;;;;;;16.90;9.10;;;;;;;;;;4893602;28;20040;-66
2022/06/12 00:18:57;;;;;;;21.58;9.68;;;;;;;;;;4893613;28;20547;-66
2022/06/12 00:21:24;;;;;;;20.77;9.82;;;;;;;;;;4893607;28;20510;-66
2022/06/12 00:23:52;;;;;;;18.77;9.45;;;;;;;;;;4894841;28;20116;-66
2022/06/12 00:26:23;;;;;;;19.95;9.05;;;;;;;;;;4894460;28;20043;-66
2022/06/12 00:28:55;;;;;;;21.35;9.20;;;;;;;;;;4893226;28;20040;-65
2022/06/12 00:31:21;;;;;;;18.77;9.07;;;;;;;;;;4894638;28;20051;-66
2022/06/12 00:33:47;;;;;;;16.88;9.13;;;;;;;;;;4893417;28;20505;-66
2022/06/12 00:36:13;;;;;;;20.27;9.95;;;;;;;;;;4894443;29;20029;-67
2022/06/12 00:38:39;;;;;;;20.48;9.32;;;;;;;;;;4893611;28;20163;-65
2022/06/12 00:41:05;;;;;;;20.45;9.48;;;;;;;;;;4894567;29;20035;-66
2022/06/12 00:43:31;;;;;;;19.20;9.55;;;;;;;;;;4894565;29;20025;-66
2022/06/12 00:45:59;;;;;;;19.10;9.02;;;;;;;;;;4894287;28;20079;-66
2022/06/12 00:48:34;;;;;;;20.73;9.77;;;;;;;;;;4893643;28;20032;-66
2022/06/12 00:51:00;;;;;;;20.17;8.85;;;;;;;;;;4894392;28;20040;-66
2022/06/12 00:53:29;;;;;;;23.17;9.63;;;;;;;;;;4893312;29;20496;-66
2022/06/12 00:56:14;;;;;;;18.70;9.13;;;;;;;;;;4894256;28;20059;-66
2022/06/12 00:58:48;;;;;;;16.98;9.02;;;;;;;;;;4893663;29;20032;-66
2022/06/12 01:01:34;;;;;;;19.73;9.05;;;;;;;;;;4893040;29;20033;-66
2022/06/12 01:06:47;;;;;;;23.83;10.18;;;;;;;;;;4894562;28;20452;-66
2022/06/12 01:09:15;;;;;;;17.98;9.27;;;;;;;;;;4893514;28;20124;-65
2022/06/12 01:11:44;;;;;;;18.60;9.13;;;;;;;;;;4894232;29;20036;-66
2022/06/12 01:14:13;;;;;;;21.95;10.68;;;;;;;;;;4894028;28;20048;-65
2022/06/12 01:16:45;;;;;;;22.50;9.43;;;;;;;;;;4894258;28;20090;-66
2022/06/12 01:19:13;;;;;;;20.10;9.48;;;;;;;;;;4892114;28;20489;-67
2022/06/12 01:21:51;;;;;;;21.23;11.25;;;;;;;;;;4894130;28;20037;-66
2022/06/12 01:24:21;;;;;;;21.08;9.88;;;;;;;;;;4894038;28;20099;-66
2022/06/12 01:27:05;;;;;;;22.27;9.85;;;;;;;;;;4892853;29;20020;-66
2022/06/12 01:29:39;;;;;;;19.40;9.38;;;;;;;;;;4894268;28;20489;-66
2022/06/12 01:32:08;;;;;;;26.88;9.75;;;;;;;;;;4893922;28;20032;-66
2022/06/12 01:34:49;;;;;;;21.30;10.13;;;;;;;;;;4893810;28;20123;-66
2022/06/12 01:37:21;;;;;;;18.67;9.07;;;;;;;;;;4893431;28;20374;-67
2022/06/12 01:39:49;;;;;;;18.52;8.95;;;;;;;;;;4895955;29;20029;-63
2022/06/12 01:42:22;;;;;;;19.60;8.70;;;;;;;;;;4896859;28;20496;-64
2022/06/12 01:44:51;;;;;;;19.25;8.68;;;;;;;;;;4897096;28;20028;-66
2022/06/12 01:47:29;;;;;;;23.48;9.50;;;;;;;;;;4895232;28;20462;-66
2022/06/12 01:50:17;;;;;;;22.20;9.65;;;;;;;;;;4895562;29;20032;-66
2022/06/12 01:52:43;;;;;;;22.50;10.60;;;;;;;;;;4897006;28;20035;-67
2022/06/12 01:55:15;;;;;;;19.88;9.38;;;;;;;;;;4897005;28;20054;-67
2022/06/12 01:57:46;;;;;;;20.67;9.15;;;;;;;;;;4896288;28;20033;-66
2022/06/12 02:00:12;;;;;;;20.08;8.82;;;;;;;;;;4896786;28;20075;-65
2022/06/12 02:02:47;;;;;;;17.73;8.80;;;;;;;;;;4896715;28;20029;-64
2022/06/12 02:05:13;;;;;;;23.42;9.20;;;;;;;;;;4895525;28;20540;-66
2022/06/12 02:07:44;;;;;;;18.27;8.95;;;;;;;;;;4894720;29;20024;-64
2022/06/12 02:10:13;;;;;;;18.20;8.85;;;;;;;;;;4896624;28;20060;-63
2022/06/12 02:15:52;;;;;;;17.15;8.80;;;;;;;;;;4896541;28;20110;-66
2022/06/12 02:18:37;;;;;;;20.38;9.13;;;;;;;;;;4895805;28;20037;-66
2022/06/12 02:21:09;;;;;;;16.80;8.30;;;;;;;;;;4895229;28;20037;-66
2022/06/12 02:23:41;;;;;;;20.10;8.82;;;;;;;;;;4895409;28;20052;-66
2022/06/12 02:26:09;;;;;;;23.17;9.10;;;;;;;;;;4896861;28;20029;-66
2022/06/12 02:28:39;;;;;;;19.42;8.80;;;;;;;;;;4894632;28;20033;-66
2022/06/12 02:31:08;;;;;;;20.33;8.40;;;;;;;;;;4895424;29;20116;-66
2022/06/12 02:33:40;;;;;;;19.52;8.25;;;;;;;;;;4896351;29;20115;-64
2022/06/12 02:36:23;;;;;;;24.05;8.98;;;;;;;;;;4896028;28;20039;-64
2022/06/12 02:38:51;;;;;;;19.33;8.88;;;;;;;;;;4894172;28;20025;-64
2022/06/12 02:41:17;;;;;;;;;;;;;;;;;;4896415;28;20043;-63
2022/06/12 02:43:44;;;;;;;20.52;8.45;;;;;;;;;;4894984;28;20109;-63
2022/06/12 02:46:40;;;;;;;20.77;8.95;;;;;;;;;;4894995;28;20397;-64
2022/06/12 02:49:06;;;;;;;18.08;8.15;;;;;;;;;;4895388;28;20087;-66
2022/06/12 02:51:34;;;;;;;21.13;9.32;;;;;;;;;;4895383;29;20032;-66
2022/06/12 02:54:00;;;;;;;21.48;10.60;;;;;;;;;;4896099;29;20035;-66
2022/06/12 02:56:45;;;;;;;19.23;8.68;;;;;;;;;;4896074;28;20111;-66
2022/06/12 02:59:14;;;;;;;19.92;8.73;;;;;;;;;;4895035;28;20029;-66
2022/06/12 03:01:51;;;;;;;22.13;8.77;;;;;;;;;;4895720;28;20474;-66
2022/06/12 03:04:24;;;;;;;19.48;9.32;;;;;;;;;;4895880;28;20045;-66
2022/06/12 03:06:50;;;;;;;19.02;9.18;;;;;;;;;;4895641;28;20052;-66
2022/06/12 03:09:17;;;;;;;20.30;8.75;;;;;;;;;;4894521;28;20108;-64
2022/06/12 03:11:44;;;;;;;21.73;8.68;;;;;;;;;;4895423;28;20040;-66
2022/06/12 03:14:16;;;;;;;26.60;9.30;;;;;;;;;;4895857;28;20040;-66
2022/06/12 03:16:43;;;;;;;18.23;9.10;;;;;;;;;;4894392;29;20035;-66
2022/06/12 03:19:11;;;;;;;24.95;9.38;;;;;;;;;;4894704;28;20481;-65
2022/06/12 03:21:53;;;;;;;19.98;9.25;;;;;;;;;;4894367;28;20408;-66
2022/06/12 03:24:29;;;;;;;24.05;9.68;;;;;;;;;;4894446;28;20516;-66
2022/06/12 03:27:33;;;;;;;25.20;10.15;;;;;;;;;;4894303;28;20036;-66
2022/06/12 03:30:02;;;;;;;22.70;9.68;;;;;;;;;;4917501;29;20431;-67
2022/06/12 03:32:47;;;;;;;22.88;9.43;;;;;;;;;;4933328;29;20403;-66
2022/06/12 03:35:48;;;;;;;18.20;9.23;;;;;;;;;;4909932;28;20184;-66
2022/06/12 03:38:22;;;;;;;21.48;9.10;;;;;;;;;;4879211;29;20036;-66
2022/06/12 03:40:51;;;;;;;19.90;9.82;;;;;;;;;;4895375;28;20048;-65
2022/06/12 03:43:17;;;;;;;;;;;;;;;;;;4895712;28;20032;-66
2022/06/12 03:45:53;;;;;;;19.85;9.23;;;;;;;;;;4893808;28;19908;-66
2022/06/12 03:48:43;;;;;;;21.83;10.35;;;;;;;;;;4894142;29;20393;-66
2022/06/12 03:51:08;;;;;;;19.40;10.07;;;;;;;;;;4912669;28;20482;-65
2022/06/12 03:53:37;;;;;;;20.10;9.63;;;;;;;;;;4895417;28;20025;-65
2022/06/12 03:59:11;;;;;;;21.65;10.75;;;;;;;;;;4894493;28;20039;-66
2022/06/12 04:01:37;;;;;;;21.70;10.68;;;;;;;;;;4894386;28;20133;-66
2022/06/12 04:04:04;;;;;;;23.50;10.68;;;;;;;;;;4893561;28;20025;-66
2022/06/12 04:06:31;;;;;;;22.52;10.23;;;;;;;;;;4895394;28;20031;-66
2022/06/12 04:09:00;;;;;;;22.15;10.70;;;;;;;;;;4894027;29;20051;-65
2022/06/12 04:11:27;;;;;;;22.65;10.68;;;;;;;;;;4893653;28;20512;-65
2022/06/12 04:13:53;;;;;;;20.90;10.15;;;;;;;;;;4894911;28;20105;-65
2022/06/12 04:16:38;;;;;;;22.35;9.73;;;;;;;;;;4894710;28;20057;-65
2022/06/12 04:19:06;;;;;;;21.42;10.30;;;;;;;;;;4894157;28;20044;-66
2022/06/12 04:21:33;;;;;;;24.55;10.82;;;;;;;;;;4894867;28;20028;-66
2022/06/12 04:24:15;;;;;;;20.05;9.63;;;;;;;;;;4893567;28;20083;-66
2022/06/12 04:26:48;;;;;;;27.20;10.32;;;;;;;;;;4894637;29;20111;-66
2022/06/12 04:29:14;;;;;;;21.30;10.57;;;;;;;;;;4893834;28;20485;-66
2022/06/12 04:31:46;;;;;;;18.35;9.93;;;;;;;;;;4894747;28;20107;-67
2022/06/12 04:34:14;;;;;;;21.23;10.38;;;;;;;;;;4894695;29;20021;-66
2022/06/12 04:36:43;;;;;;;21.83;9.95;;;;;;;;;;4894686;28;20546;-66
2022/06/12 04:39:11;;;;;;;17.95;10.00;;;;;;;;;;4893655;28;20040;-66
2022/06/12 04:41:37;;;;;;;21.88;9.95;;;;;;;;;;4893447;28;20033;-66
2022/06/12 04:44:04;;;;;;;27.05;10.15;;;;;;;;;;4893391;28;20032;-65
2022/06/12 04:46:30;;;;;;;21.75;10.75;;;;;;;;;;4893338;28;20025;-65
2022/06/12 04:48:57;;;;;;;19.50;10.40;;;;;;;;;;4892602;28;20036;-66
2022/06/12 04:51:24;;;;;;;25.92;10.80;;;;;;;;;;4893247;28;20033;-66
2022/06/12 04:53:50;;;;;;;25.55;11.23;;;;;;;;;;4893334;28;20072;-66
2022/06/12 04:56:17;;;;;;;20.25;9.63;;;;;;;;;;4894528;28;20433;-66
2022/06/12 04:58:43;;;;;;;21.98;9.93;;;;;;;;;;4893320;28;20040;-66
2022/06/12 05:01:10;;;;;;;23.55;10.60;;;;;;;;;;4894322;28;20087;-65
2022/06/12 05:03:36;;;;;;;19.27;10.15;;;;;;;;;;4894340;28;20079;-66
2022/06/12 05:06:02;;;;;;;23.77;10.98;;;;;;;;;;4894267;28;20051;-65
2022/06/12 05:08:29;;;;;;;22.98;11.02;;;;;;;;;;4893698;28;20393;-67
2022/06/12 05:10:55;;;;;;;19.67;11.07;;;;;;;;;;4892981;28;20051;-66
2022/06/12 05:13:21;;;;;;;19.80;10.10;;;;;;;;;;4894811;28;20033;-66
2022/06/12 05:15:47;;;;;;;23.27;11.07;;;;;;;;;;4897540;28;20108;-66
2022/06/12 05:18:14;;;;;;;22.60;10.95;;;;;;;;;;4895560;28;20060;-66
2022/06/12 05:20:41;;;;;;;24.20;10.48;;;;;;;;;;4897420;28;20037;-66
2022/06/12 05:23:07;;;;;;;24.45;11.65;;;;;;;;;;4896241;28;20673;-66
2022/06/12 05:25:33;;;;;;;23.85;10.20;;;;;;;;;;4897367;28;20036;-66
2022/06/12 05:27:59;;;;;;;20.17;10.20;;;;;;;;;;4896540;28;20091;-66
2022/06/12 05:30:27;;;;;;;21.40;10.35;;;;;;;;;;4897081;28;20040;-66
2022/06/12 05:32:53;;;;;;;20.02;10.60;;;;;;;;;;4897386;28;20536;-66
2022/06/12 05:35:20;;;;;;;19.55;9.30;;;;;;;;;;4896071;28;20461;-64
2022/06/12 05:37:47;;;;;;;18.90;9.52;;;;;;;;;;4895079;29;20488;-66
2022/06/12 05:40:15;;;;;;;16.33;9.07;;;;;;;;;;4896705;28;20032;-66
2022/06/12 05:42:41;;;;;;;;;;;;;;;;;;4897552;28;20025;-65
2022/06/12 05:45:09;;;;;;;19.15;9.18;;;;;;;;;;4897170;28;19908;-65
2022/06/12 05:47:35;;;;;;;17.02;8.18;;;;;;;;;;4894989;29;20051;-66
2022/06/12 05:50:01;;;;;;;17.83;8.70;;;;;;;;;;4895804;28;20087;-65
2022/06/12 05:52:27;;;;;;;16.55;7.78;;;;;;;;;;4896866;28;20084;-66
2022/06/12 05:54:54;;;;;;;17.25;7.72;;;;;;;;;;4896920;29;20033;-66
2022/06/12 05:57:20;;;;;;;19.98;8.25;;;;;;;;;;4894682;28;20032;-66
2022/06/12 05:59:46;;;;;;;17.98;7.72;;;;;;;;;;4896481;28;20036;-66
2022/06/12 06:02:12;;;;;;;18.05;8.75;;;;;;;;;;4895543;29;20470;-65
2022/06/12 06:04:38;;;;;;;18.90;8.68;;;;;;;;;;4895363;28;20020;-66
2022/06/12 06:07:04;;;;;;;18.90;8.52;;;;;;;;;;4896631;28;20032;-65
2022/06/12 06:09:30;;;;;;;20.17;8.32;;;;;;;;;;4895865;28;20043;-65
2022/06/12 06:11:56;;;;;;;17.80;8.40;;;;;;;;;;4895473;29;20029;-66
2022/06/12 06:14:22;;;;;;;19.05;8.40;;;;;;;;;;4896471;28;20063;-65
2022/06/12 06:16:48;;;;;;;18.77;8.38;;;;;;;;;;4895401;28;20033;-65
2022/06/12 06:19:15;;;;;;;17.63;8.50;;;;;;;;;;4895955;28;20043;-65
2022/06/12 06:21:41;;;;;;;17.30;8.25;;;;;;;;;;4895216;28;20120;-65
2022/06/12 06:24:11;;;;;;;17.33;9.27;;;;;;;;;;4896530;28;20040;-65
2022/06/12 06:26:37;;;;;;;17.58;8.90;;;;;;;;;;4895489;28;20020;-65
2022/06/12 06:29:03;;;;;;;15.73;8.43;;;;;;;;;;4895487;28;20036;-63
2022/06/12 06:31:29;;;;;;;17.38;9.43;;;;;;;;;;4895378;28;20126;-65
2022/06/12 06:33:55;;;;;;;17.20;9.00;;;;;;;;;;4896425;28;20552;-65
2022/06/12 06:36:22;;;;;;;14.93;8.90;;;;;;;;;;4896515;28;20477;-65
2022/06/12 06:38:50;;;;;;;17.77;8.90;;;;;;;;;;4895370;28;20037;-66
2022/06/12 06:41:16;;;;;;;16.55;9.05;;;;;;;;;;4895136;28;20032;-65
2022/06/12 06:46:27;;;;;;;16.73;9.00;;;;;;;;;;4896517;28;20124;-65
2022/06/12 06:48:53;;;;;;;17.23;9.20;;;;;;;;;;4895074;28;20052;-65
2022/06/12 06:51:19;;;;;;;18.65;9.60;;;;;;;;;;4896065;28;20032;-66
2022/06/12 06:53:45;;;;;;;18.15;9.20;;;;;;;;;;4894928;28;20042;-65
2022/06/12 06:56:11;;;;;;;16.60;9.18;;;;;;;;;;4894928;28;20485;-65
2022/06/12 06:58:37;;;;;;;15.55;8.68;;;;;;;;;;4895052;28;20502;-65
2022/06/12 07:01:04;;;;;;;19.52;9.15;;;;;;;;;;4896130;28;20057;-65
2022/06/12 07:03:30;;;;;;;17.63;8.90;;;;;;;;;;4894609;28;20116;-66
2022/06/12 07:05:57;;;;;;;16.95;9.50;;;;;;;;;;4895852;28;20089;-65
2022/06/12 07:08:24;;;;;;;23.58;10.27;;;;;;;;;;4895017;28;20619;-66
2022/06/12 07:10:50;;;;;;;18.40;9.13;;;;;;;;;;4895874;28;20033;-66
2022/06/12 07:13:16;;;;;;;19.33;9.80;;;;;;;;;;4895647;28;20035;-65
2022/06/12 07:15:42;;;;;;;17.17;8.77;;;;;;;;;;4894501;29;20029;-66
2022/06/12 07:18:09;;;;;;;19.17;9.38;;;;;;;;;;4893777;28;20033;-65
2022/06/12 07:20:37;;;;;;;18.90;9.23;;;;;;;;;;4894271;28;20116;-66
2022/06/12 07:23:04;;;;;;;18.00;9.20;;;;;;;;;;4895759;28;20048;-65
2022/06/12 07:25:37;;;;;;;17.92;9.05;;;;;;;;;;4895636;28;20473;-65
2022/06/12 07:28:03;;;;;;;17.77;8.80;;;;;;;;;;4893182;28;20028;-66
2022/06/12 07:30:29;;;;;;;17.30;9.20;;;;;;;;;;4963628;23;20510;-64
2022/06/12 07:32:55;;;;;;;19.80;9.27;;;;;;;;;;4942349;29;20027;-64
2022/06/12 07:35:21;;;;;;;17.70;9.00;;;;;;;;;;4934590;28;20069;-64
2022/06/12 07:37:47;;;;;;;17.02;9.48;;;;;;;;;;4962185;28;20059;-64
2022/06/12 07:40:17;;;;;;;21.27;8.98;;;;;;;;;;4951976;29;20035;-64
2022/06/12 07:42:43;;;;;;;16.85;9.10;;;;;;;;;;4952173;28;20445;-64
2022/06/12 07:45:10;;;;;;;16.25;8.80;;;;;;;;;;4940823;29;20358;-65
2022/06/12 07:47:36;;;;;;;19.10;8.88;;;;;;;;;;4915025;28;20032;-64
2022/06/12 07:50:03;;;;;;;17.75;9.20;;;;;;;;;;4915863;28;20477;-64
2022/06/12 07:52:30;;;;;;;17.50;8.93;;;;;;;;;;4916928;28;20035;-64
2022/06/12 07:54:56;;;;;;;18.05;8.77;;;;;;;;;;4952052;28;20433;-63
2022/06/12 07:57:22;;;;;;;15.85;8.35;;;;;;;;;;4951168;28;20023;-62
2022/06/12 07:59:48;;;;;;;16.80;8.98;;;;;;;;;;4951604;28;20043;-58
2022/06/12 08:02:15;;;;;;;18.20;9.10;;;;;;;;;;4951768;28;20023;-61
2022/06/12 08:04:41;;;;;;;18.35;9.15;;;;;;;;;;4953092;28;20027;-61
2022/06/12 08:07:07;;;;;;;17.92;8.25;;;;;;;;;;4934372;28;20391;-61
2022/06/12 08:09:33;;;;;;;17.90;8.40;;;;;;;;;;4949904;29;20034;-63
2022/06/12 08:12:03;;;;;;;18.85;9.82;;;;;;;;;;4690182;28;10000618;-63
2022/06/12 08:14:29;;;;;;;17.27;8.68;;;;;;;;;;4975899;28;20812;-62
2022/06/12 08:16:55;;;;;;;16.92;8.15;;;;;;;;;;4994990;28;20035;-61
2022/06/12 08:22:07;;;;;;;18.23;8.65;;;;;;;;;;4939260;29;20042;-61
2022/06/12 08:24:33;;;;;;;17.00;8.95;;;;;;;;;;4929580;29;20502;-62
2022/06/12 08:26:59;;;;;;;15.82;8.55;;;;;;;;;;4929802;29;20034;-62
2022/06/12 08:29:25;;;;;;;16.92;8.70;;;;;;;;;;4929074;29;20031;-62
2022/06/12 08:31:54;;;;;;;15.68;8.15;;;;;;;;;;4949137;29;20535;-62
2022/06/12 08:34:32;;;;;;;17.08;8.65;;;;;;;;;;4931859;28;20035;-62
2022/06/12 08:37:00;;;;;;;17.02;9.00;;;;;;;;;;4948560;29;20035;-63
2022/06/12 08:39:27;;;;;;;15.05;8.43;;;;;;;;;;4931138;28;20047;-61
2022/06/12 08:42:02;;;;;;;18.70;8.85;;;;;;;;;;4948702;29;20028;-62
2022/06/12 08:44:34;;;;;;;17.00;8.52;;;;;;;;;;4924391;28;20488;-63
2022/06/12 08:47:05;;;;;;;16.23;8.45;;;;;;;;;;4933687;29;20027;-62
2022/06/12 08:49:36;;;;;;;16.77;8.50;;;;;;;;;;4952739;28;20421;-62
2022/06/12 08:52:10;;;;;;;16.02;8.40;;;;;;;;;;4937923;28;20042;-62
2022/06/12 08:54:57;;;;;;;15.55;9.10;;;;;;;;;;4937601;28;20576;-62
2022/06/12 08:57:26;;;;;;;18.15;8.85;;;;;;;;;;4936919;28;20035;-63
2022/06/12 09:00:01;;;;;;;16.83;8.77;;;;;;;;;;4954123;28;20015;-61
2022/06/12 09:02:32;;;;;;;14.42;8.50;;;;;;;;;;4613171;28;10000779;-61
2022/06/12 09:05:01;;;;;;;17.55;8.43;;;;;;;;;;4917943;29;20173;-62
2022/06/12 09:07:35;;;;;;;15.57;8.60;;;;;;;;;;4935054;29;20726;-63
2022/06/12 09:10:07;;;;;;;17.52;8.82;;;;;;;;;;4936926;29;20031;-64
2022/06/12 09:12:42;;;;;;;17.45;9.20;;;;;;;;;;4938331;29;20039;-61
2022/06/12 09:15:10;;;;;;;16.63;8.70;;;;;;;;;;4951602;28;20028;-62
2022/06/12 09:17:44;;;;;;;16.33;8.70;;;;;;;;;;4957408;28;20515;-61
2022/06/12 09:20:30;;;;;;;18.13;8.65;;;;;;;;;;4941194;28;20035;-63
2022/06/12 09:23:16;;;;;;;16.02;8.50;;;;;;;;;;4958559;29;20045;-65
2022/06/12 09:25:51;;;;;;;18.17;9.45;;;;;;;;;;4958472;29;20020;-62
2022/06/12 09:28:36;;;;;;;18.98;8.70;;;;;;;;;;4957863;28;20037;-62
2022/06/12 09:31:05;;;;;;;17.52;9.05;;;;;;;;;;4961623;28;20125;-63
2022/06/12 09:33:43;;;;;;;17.88;8.73;;;;;;;;;;4946409;28;20031;-61
2022/06/12 09:36:09;;;;;;;21.40;9.55;;;;;;;;;;4963397;29;20070;-59
2022/06/12 09:38:38;;;;;;;18.40;8.38;;;;;;;;;;4963629;28;20024;-60
2022/06/12 09:41:13;;;;;;;17.65;8.90;;;;;;;;;;4962897;28;20031;-63
2022/06/12 09:43:48;;;;;;;20.52;9.25;;;;;;;;;;4962639;28;20076;-63
2022/06/12 09:46:17;;;;;;;17.35;8.75;;;;;;;;;;4943700;29;20024;-62
2022/06/12 09:48:46;;;;;;;19.60;8.60;;;;;;;;;;4951640;29;20027;-64
2022/06/12 09:51:15;;;;;;;17.02;9.10;;;;;;;;;;4961132;28;20035;-65
2022/06/12 09:54:10;;;;;;;17.88;9.32;;;;;;;;;;4964612;28;20027;-65
2022/06/12 09:56:49;;;;;;;20.42;10.25;;;;;;;;;;4963439;29;20038;-65
2022/06/12 09:59:53;;;;;;;17.48;9.30;;;;;;;;;;4961295;28;20085;-63
2022/06/12 10:02:32;;;;;;;17.67;9.00;;;;;;;;;;4960334;29;20031;-63
2022/06/12 10:04:58;;;;;;;;;;;;;;;;;;4941859;29;20447;-62
2022/06/12 10:07:46;;;;;;;15.70;8.90;;;;;;;;;;4953080;28;19913;-63
2022/06/12 10:10:17;;;;;;;19.52;9.05;;;;;;;;;;4953677;28;20020;-63
2022/06/12 10:12:44;;;;;;;16.80;9.05;;;;;;;;;;4953521;28;20434;-63
2022/06/12 10:15:14;;;;;;;19.37;9.20;;;;;;;;;;4946776;28;20016;-65
2022/06/12 10:17:40;;;;;;;18.65;9.73;;;;;;;;;;4933305;29;20028;-61
2022/06/12 10:20:18;;;;;;;23.02;9.50;;;;;;;;;;4934425;29;20031;-63
2022/06/12 10:22:46;;;;;;;16.65;9.15;;;;;;;;;;4934373;29;20047;-64
2022/06/12 10:25:18;;;;;;;17.17;9.27;;;;;;;;;;4934264;29;20032;-64
2022/06/12 10:27:49;;;;;;;22.45;9.57;;;;;;;;;;4916205;29;20174;-64
2022/06/12 10:30:33;;;;;;;17.25;8.93;;;;;;;;;;4933751;29;20067;-63
2022/06/12 10:33:08;;;;;;;17.52;9.68;;;;;;;;;;4934216;29;20111;-62
2022/06/12 10:35:45;;;;;;;18.63;9.40;;;;;;;;;;4933960;28;20027;-60
2022/06/12 10:38:11;;;;;;;19.45;9.55;;;;;;;;;;4933256;29;20023;-64
2022/06/12 10:40:37;;;;;;;20.17;10.07;;;;;;;;;;4933768;29;20035;-61
2022/06/12 10:43:05;;;;;;;19.98;9.50;;;;;;;;;;4933583;29;20024;-63
2022/06/12 10:45:36;;;;;;;20.20;9.80;;;;;;;;;;4933746;29;20028;-64
2022/06/12 10:48:20;;;;;;;18.10;8.90;;;;;;;;;;4936370;29;20077;-63
2022/06/12 10:50:54;;;;;;;20.05;9.35;;;;;;;;;;4935650;28;20116;-65
2022/06/12 10:53:22;;;;;;;18.88;10.07;;;;;;;;;;4953049;29;20039;-64
2022/06/12 10:55:54;;;;;;;16.60;9.47;;;;;;;;;;4953102;28;20035;-64
2022/06/12 10:58:39;;;;;;;17.85;9.45;;;;;;;;;;4952333;29;20834;-65
2022/06/12 11:01:12;;;;;;;19.05;9.07;;;;;;;;;;4952465;29;20024;-64
2022/06/12 11:03:51;;;;;;;19.05;9.43;;;;;;;;;;4952605;29;20113;-65
2022/06/12 11:06:27;;;;;;;23.23;10.20;;;;;;;;;;4935303;28;20491;-63
2022/06/12 11:08:59;;;;;;;19.13;9.75;;;;;;;;;;4952183;29;20502;-61
2022/06/12 11:11:34;;;;;;;21.13;9.98;;;;;;;;;;4951874;28;20028;-63
2022/06/12 11:14:06;;;;;;;16.70;9.50;;;;;;;;;;4952524;28;20055;-64
2022/06/12 11:16:32;;;;;;;18.48;10.13;;;;;;;;;;4935145;28;20031;-64
2022/06/12 11:18:59;;;;;;;23.45;10.40;;;;;;;;;;4932513;29;20030;-65
2022/06/12 11:21:44;;;;;;;17.83;10.00;;;;;;;;;;4933384;29;20445;-64
2022/06/12 11:24:29;;;;;;;17.00;9.55;;;;;;;;;;4915937;29;20055;-64
2022/06/12 11:27:07;;;;;;;16.23;9.88;;;;;;;;;;4933243;29;20024;-64
2022/06/12 11:29:33;;;;;;;17.88;9.70;;;;;;;;;;4249686;29;10000669;-65
2022/06/12 11:32:16;;;;;;;17.40;10.00;;;;;;;;;;4914448;28;20527;-64
2022/06/12 11:34:45;;;;;;;16.13;9.15;;;;;;;;;;4932256;28;20488;-64
2022/06/12 11:37:24;;;;;;;16.15;9.77;;;;;;;;;;4915426;28;20059;-59
2022/06/12 11:40:17;;;;;;;18.77;9.70;;;;;;;;;;4932746;28;20039;-64
2022/06/12 11:42:46;;;;;;;21.05;10.80;;;;;;;;;;4934126;28;20085;-64
2022/06/12 11:45:32;;;;;;;17.63;10.18;;;;;;;;;;4915870;28;20071;-63
2022/06/12 11:48:04;;;;;;;19.90;9.90;;;;;;;;;;4935589;29;20510;-64
2022/06/12 11:50:50;;;;;;;16.70;10.20;;;;;;;;;;4951632;28;20028;-63
2022/06/12 11:53:31;;;;;;;16.40;10.38;;;;;;;;;;4951789;28;20106;-62
2022/06/12 11:56:03;;;;;;;18.65;10.23;;;;;;;;;;4951817;29;20028;-64
2022/06/12 11:58:31;;;;;;;17.17;10.00;;;;;;;;;;4950918;29;20061;-65
2022/06/12 12:01:04;;;;;;;17.63;9.82;;;;;;;;;;4934482;28;20027;-64
2022/06/12 12:03:39;;;;;;;16.30;8.82;;;;;;;;;;4951783;29;20223;-64
2022/06/12 12:06:08;;;;;;;18.05;9.23;;;;;;;;;;4951842;28;20102;-63
2022/06/12 12:08:44;;;;;;;21.25;11.05;;;;;;;;;;4934064;28;20398;-64
2022/06/12 12:11:24;;;;;;;17.83;9.70;;;;;;;;;;4951968;28;20027;-63
2022/06/12 12:13:53;;;;;;;18.38;9.82;;;;;;;;;;4951620;29;20031;-64
2022/06/12 12:16:31;;;;;;;20.42;9.93;;;;;;;;;;4935970;28;20515;-62
2022/06/12 12:19:03;;;;;;;17.73;10.07;;;;;;;;;;4931357;29;20032;-59
2022/06/12 12:21:39;;;;;;;17.23;9.93;;;;;;;;;;4932155;29;20028;-64
2022/06/12 12:24:08;;;;;;;19.25;10.85;;;;;;;;;;4931527;29;20111;-65
2022/06/12 12:26:37;;;;;;;21.52;11.25;;;;;;;;;;4932401;29;20499;-64
2022/06/12 12:29:04;;;;;;;20.73;11.18;;;;;;;;;;4914078;29;20043;-64
2022/06/12 12:31:31;;;;;;;19.45;10.95;;;;;;;;;;4932166;29;20031;-65
2022/06/12 12:33:58;;;;;;;18.33;11.10;;;;;;;;;;4932214;29;20547;-63
2022/06/12 12:42:20;;;;;;;18.77;10.65;;;;;;;;;;4947518;29;20071;-61
2022/06/12 12:44:46;;;;;;;17.55;10.88;;;;;;;;;;4947985;29;20511;-64
2022/06/12 12:47:28;;;;;;;20.70;10.23;;;;;;;;;;4946925;28;20023;-62
2022/06/12 12:50:02;;;;;;;18.67;10.50;;;;;;;;;;4912444;28;20031;-63
2022/06/12 12:52:38;;;;;;;18.30;10.48;;;;;;;;;;4928804;29;20031;-62
2022/06/12 12:55:05;;;;;;;19.98;10.35;;;;;;;;;;4929223;29;20090;-63
2022/06/12 12:57:34;;;;;;;19.08;10.57;;;;;;;;;;4929533;29;20074;-64
2022/06/12 13:00:01;;;;;;;17.77;10.60;;;;;;;;;;4930742;29;20103;-63
2022/06/12 13:02:36;;;;;;;16.83;10.75;;;;;;;;;;4589563;28;10000830;-61
2022/06/12 13:05:14;;;;;;;20.20;10.02;;;;;;;;;;4947552;29;20073;-59
2022/06/12 13:07:42;;;;;;;18.77;10.75;;;;;;;;;;4946707;28;20081;-59
2022/06/12 13:10:27;;;;;;;18.17;10.23;;;;;;;;;;4946870;28;20119;-57
2022/06/12 13:13:12;;;;;;;21.60;10.70;;;;;;;;;;4937836;28;20035;-61
2022/06/12 13:15:51;;;;;;;18.15;10.70;;;;;;;;;;4937995;28;20096;-58
2022/06/12 13:18:20;;;;;;;17.55;9.93;;;;;;;;;;4935423;28;20115;-59
2022/06/12 13:21:04;;;;;;;18.15;10.77;;;;;;;;;;4936097;29;20449;-59
2022/06/12 13:24:02;;;;;;;19.60;11.02;;;;;;;;;;4938380;28;20047;-56
2022/06/12 13:26:31;;;;;;;22.52;10.90;;;;;;;;;;4896526;29;20050;-55
2022/06/12 13:28:59;;;;;;;20.25;10.57;;;;;;;;;;4938224;28;20098;-61
2022/06/12 13:31:28;;;;;;;18.55;10.77;;;;;;;;;;4936125;28;20023;-57
2022/06/12 13:33:56;;;;;;;19.30;11.02;;;;;;;;;;4968494;23;20126;-62
2022/06/12 13:36:27;;;;;;;17.92;10.70;;;;;;;;;;4607444;28;10000495;-60
2022/06/12 13:38:56;;;;;;;21.45;11.23;;;;;;;;;;4948011;28;20020;-61
2022/06/12 13:41:34;;;;;;;18.75;10.40;;;;;;;;;;4948610;29;20028;-61
2022/06/12 13:44:19;;;;;;;17.90;10.60;;;;;;;;;;4948428;29;20031;-62
2022/06/12 13:46:45;;;;;;;18.80;10.68;;;;;;;;;;4937821;29;20097;-61
2022/06/12 13:49:44;;;;;;;19.23;10.57;;;;;;;;;;4964420;28;20039;-62
2022/06/12 13:52:22;;;;;;;16.60;10.55;;;;;;;;;;4934161;28;20039;-61
2022/06/12 13:54:48;;;;;;;17.23;10.25;;;;;;;;;;4969698;28;20042;-64
2022/06/12 13:57:33;;;;;;;16.27;10.25;;;;;;;;;;4948083;28;20023;-62
2022/06/12 13:59:59;;;;;;;20.33;11.52;;;;;;;;;;4946777;29;20081;-61
2022/06/12 14:02:27;;;;;;;16.65;10.45;;;;;;;;;;4948986;29;20102;-61
2022/06/12 14:05:01;;;;;;;16.08;10.00;;;;;;;;;;4948709;28;20114;-62
2022/06/12 14:07:34;;;;;;;18.42;10.95;;;;;;;;;;4937299;29;20080;-62
2022/06/12 14:10:09;;;;;;;17.67;10.30;;;;;;;;;;4946627;29;20028;-59
2022/06/12 14:12:36;;;;;;;18.90;10.05;;;;;;;;;;4948132;28;20051;-61
2022/06/12 14:15:02;;;;;;;15.95;9.82;;;;;;;;;;4944088;28;20027;-62
2022/06/12 14:17:30;;;;;;;18.98;10.30;;;;;;;;;;4931066;29;20039;-65
2022/06/12 14:20:07;;;;;;;18.27;10.77;;;;;;;;;;4932616;29;20019;-65
2022/06/12 14:22:47;;;;;;;17.98;10.57;;;;;;;;;;4915262;29;20505;-64
2022/06/12 14:25:25;;;;;;;15.95;9.85;;;;;;;;;;4915544;29;20058;-65
2022/06/12 14:27:51;;;;;;;;;;;;;;;;;;4932375;29;20028;-64
2022/06/12 14:30:35;;;;;;;16.05;10.07;;;;;;;;;;4932524;29;20298;-64
2022/06/12 14:33:01;;;;;;;17.75;10.27;;;;;;;;;;4932175;29;20504;-64
2022/06/12 14:35:27;;;;;;;17.05;10.20;;;;;;;;;;4932296;29;20035;-63
2022/06/12 14:37:54;;;;;;;17.98;10.27;;;;;;;;;;4931806;29;20032;-64
2022/06/12 14:40:26;;;;;;;17.48;10.48;;;;;;;;;;4932397;29;20035;-64
2022/06/12 14:42:58;;;;;;;15.80;10.40;;;;;;;;;;4915122;28;20035;-64
2022/06/12 14:45:24;;;;;;;17.15;10.82;;;;;;;;;;4914975;29;20438;-64
2022/06/12 14:47:51;;;;;;;16.33;11.07;;;;;;;;;;4939838;29;20447;-65
2022/06/12 14:50:17;;;;;;;16.08;10.40;;;;;;;;;;4950744;28;20027;-64
2022/06/12 14:52:43;;;;;;;16.92;10.32;;;;;;;;;;4941415;28;20584;-65
2022/06/12 14:55:09;;;;;;;18.25;10.73;;;;;;;;;;4951083;28;20027;-65
2022/06/12 14:57:36;;;;;;;17.88;10.80;;;;;;;;;;4941023;29;20031;-62
2022/06/12 15:00:09;;;;;;;16.98;10.73;;;;;;;;;;4950619;28;20521;-65
2022/06/12 15:02:35;;;;;;;15.95;9.98;;;;;;;;;;4951037;29;20020;-63
2022/06/12 15:05:01;;;;;;;17.63;10.18;;;;;;;;;;4951083;28;20042;-64
2022/06/12 15:07:27;;;;;;;19.40;10.50;;;;;;;;;;4950047;28;20210;-66
2022/06/12 15:09:54;;;;;;;21.10;10.88;;;;;;;;;;4950213;28;20387;-65